sensor_id;sensor_type;location;lat;lon;timestamp;P1;durP1;ratioP1;P2;durP2;ratioP2
40254;SDS011;25973;52.368;4.940;2022-11-20T00:00:24;9.32;;;3.15;;
40254;SDS011;25973;52.368;4.940;2022-11-20T00:02:50;9.63;;;4.00;;
40254;SDS011;25973;52.368;4.940;2022-11-20T00:05:15;9.18;;;4.03;;
40254;SDS011;25973;52.368;4.940;2022-11-20T00:07:41;8.50;;;3.70;;
40254;SDS011;25973;52.368;4.940;2022-11-20T00:10:07;9.25;;;4.32;;
40254;SDS011;25973;52.368;4.940;2022-11-20T00:12:33;26.73;;;8.90;;
40254;SDS011;25973;52.368;4.940;2022-11-20T00:14:59;17.30;;;5.82;;
40254;SDS011;25973;52.368;4.940;2022-11-20T00:17:24;10.88;;;4.85;;
40254;SDS011;25973;52.368;4.940;2022-11-20T00:19:50;10.00;;;4.18;;
40254;SDS011;25973;52.368;4.940;2022-11-20T00:22:15;10.95;;;5.10;;
40254;SDS011;25973;52.368;4.940;2022-11-20T00:24:41;7.45;;;3.78;;
40254;SDS011;25973;52.368;4.940;2022-11-20T00:27:06;7.55;;;3.88;;
40254;SDS011;25973;52.368;4.940;2022-11-20T00:29:32;8.23;;;4.03;;
40254;SDS011;25973;52.368;4.940;2022-11-20T00:31:57;7.50;;;3.53;;
40254;SDS011;25973;52.368;4.940;2022-11-20T00:34:23;13.05;;;4.05;;
40254;SDS011;25973;52.368;4.940;2022-11-20T00:36:51;11.85;;;4.55;;
40254;SDS011;25973;52.368;4.940;2022-11-20T00:39:17;11.75;;;4.30;;
40254;SDS011;25973;52.368;4.940;2022-11-20T00:41:42;9.52;;;4.03;;
40254;SDS011;25973;52.368;4.940;2022-11-20T00:44:08;6.68;;;3.45;;
40254;SDS011;25973;52.368;4.940;2022-11-20T00:46:33;7.75;;;3.75;;
40254;SDS011;25973;52.368;4.940;2022-11-20T00:48:59;7.35;;;3.17;;
40254;SDS011;25973;52.368;4.940;2022-11-20T00:51:25;10.70;;;5.35;;
40254;SDS011;25973;52.368;4.940;2022-11-20T00:53:51;9.07;;;4.25;;
40254;SDS011;25973;52.368;4.940;2022-11-20T00:56:19;10.85;;;3.67;;
40254;SDS011;25973;52.368;4.940;2022-11-20T00:58:46;10.15;;;4.68;;
40254;SDS011;25973;52.368;4.940;2022-11-20T01:01:16;8.07;;;3.97;;
40254;SDS011;25973;52.368;4.940;2022-11-20T01:03:45;10.13;;;4.22;;
40254;SDS011;25973;52.368;4.940;2022-11-20T01:06:16;8.40;;;4.30;;
40254;SDS011;25973;52.368;4.940;2022-11-20T01:08:44;7.22;;;3.67;;
40254;SDS011;25973;52.368;4.940;2022-11-20T01:11:11;9.63;;;4.40;;
40254;SDS011;25973;52.368;4.940;2022-11-20T01:13:38;9.98;;;4.47;;
40254;SDS011;25973;52.368;4.940;2022-11-20T01:18:38;9.65;;;3.95;;
40254;SDS011;25973;52.368;4.940;2022-11-20T01:21:06;9.45;;;4.55;;
40254;SDS011;25973;52.368;4.940;2022-11-20T01:23:42;10.20;;;4.40;;
40254;SDS011;25973;52.368;4.940;2022-11-20T01:26:13;8.10;;;4.00;;
40254;SDS011;25973;52.368;4.940;2022-11-20T01:28:41;10.75;;;4.20;;
40254;SDS011;25973;52.368;4.940;2022-11-20T01:31:11;10.10;;;4.50;;
40254;SDS011;25973;52.368;4.940;2022-11-20T01:33:40;10.85;;;4.10;;
40254;SDS011;25973;52.368;4.940;2022-11-20T01:36:06;10.18;;;4.32;;
40254;SDS011;25973;52.368;4.940;2022-11-20T01:38:32;11.32;;;4.47;;
40254;SDS011;25973;52.368;4.940;2022-11-20T01:40:58;8.85;;;4.55;;
40254;SDS011;25973;52.368;4.940;2022-11-20T01:43:24;9.88;;;4.53;;
40254;SDS011;25973;52.368;4.940;2022-11-20T01:48:25;8.70;;;4.47;;
40254;SDS011;25973;52.368;4.940;2022-11-20T01:50:54;9.48;;;4.28;;
40254;SDS011;25973;52.368;4.940;2022-11-20T01:53:23;9.27;;;4.57;;
40254;SDS011;25973;52.368;4.940;2022-11-20T01:55:53;9.88;;;4.53;;
40254;SDS011;25973;52.368;4.940;2022-11-20T01:58:22;12.63;;;4.60;;
40254;SDS011;25973;52.368;4.940;2022-11-20T02:00:52;8.68;;;4.20;;
40254;SDS011;25973;52.368;4.940;2022-11-20T02:03:18;8.65;;;4.55;;
40254;SDS011;25973;52.368;4.940;2022-11-20T02:05:46;9.25;;;4.38;;
40254;SDS011;25973;52.368;4.940;2022-11-20T02:08:19;9.23;;;4.00;;
40254;SDS011;25973;52.368;4.940;2022-11-20T02:10:46;10.65;;;5.63;;
40254;SDS011;25973;52.368;4.940;2022-11-20T02:13:11;10.02;;;4.50;;
40254;SDS011;25973;52.368;4.940;2022-11-20T02:15:57;9.70;;;4.53;;
40254;SDS011;25973;52.368;4.940;2022-11-20T02:18:23;9.88;;;4.53;;
40254;SDS011;25973;52.368;4.940;2022-11-20T02:20:50;8.55;;;4.45;;
40254;SDS011;25973;52.368;4.940;2022-11-20T02:25:51;8.20;;;3.97;;
40254;SDS011;25973;52.368;4.940;2022-11-20T02:28:18;14.45;;;4.20;;
40254;SDS011;25973;52.368;4.940;2022-11-20T02:30:45;9.23;;;4.63;;
40254;SDS011;25973;52.368;4.940;2022-11-20T02:33:12;11.55;;;4.85;;
40254;SDS011;25973;52.368;4.940;2022-11-20T02:35:44;11.32;;;4.45;;
40254;SDS011;25973;52.368;4.940;2022-11-20T02:38:12;10.68;;;4.60;;
40254;SDS011;25973;52.368;4.940;2022-11-20T02:40:39;10.73;;;4.20;;
40254;SDS011;25973;52.368;4.940;2022-11-20T02:43:04;12.38;;;4.78;;
40254;SDS011;25973;52.368;4.940;2022-11-20T02:45:30;8.68;;;4.32;;
40254;SDS011;25973;52.368;4.940;2022-11-20T02:47:56;10.43;;;4.22;;
40254;SDS011;25973;52.368;4.940;2022-11-20T02:50:22;9.25;;;4.47;;
40254;SDS011;25973;52.368;4.940;2022-11-20T02:52:47;10.82;;;4.90;;
40254;SDS011;25973;52.368;4.940;2022-11-20T02:55:13;10.02;;;5.70;;
40254;SDS011;25973;52.368;4.940;2022-11-20T02:57:40;9.88;;;4.53;;
40254;SDS011;25973;52.368;4.940;2022-11-20T03:00:06;9.13;;;4.43;;
40254;SDS011;25973;52.368;4.940;2022-11-20T03:02:32;11.85;;;4.78;;
40254;SDS011;25973;52.368;4.940;2022-11-20T03:04:58;19.88;;;4.78;;
40254;SDS011;25973;52.368;4.940;2022-11-20T03:07:23;11.13;;;4.28;;
40254;SDS011;25973;52.368;4.940;2022-11-20T03:09:49;8.05;;;4.30;;
40254;SDS011;25973;52.368;4.940;2022-11-20T03:12:16;9.88;;;4.85;;
40254;SDS011;25973;52.368;4.940;2022-11-20T03:14:42;9.15;;;4.93;;
40254;SDS011;25973;52.368;4.940;2022-11-20T03:17:08;8.95;;;3.97;;
40254;SDS011;25973;52.368;4.940;2022-11-20T03:19:34;12.57;;;5.03;;
40254;SDS011;25973;52.368;4.940;2022-11-20T03:21:59;10.25;;;4.38;;
40254;SDS011;25973;52.368;4.940;2022-11-20T03:24:25;11.80;;;5.07;;
40254;SDS011;25973;52.368;4.940;2022-11-20T03:26:51;10.75;;;4.85;;
40254;SDS011;25973;52.368;4.940;2022-11-20T03:29:17;10.88;;;4.95;;
40254;SDS011;25973;52.368;4.940;2022-11-20T03:31:42;10.05;;;5.03;;
40254;SDS011;25973;52.368;4.940;2022-11-20T03:34:09;9.77;;;5.00;;
40254;SDS011;25973;52.368;4.940;2022-11-20T03:36:37;11.00;;;5.45;;
40254;SDS011;25973;52.368;4.940;2022-11-20T03:39:04;8.93;;;4.28;;
40254;SDS011;25973;52.368;4.940;2022-11-20T03:41:30;10.52;;;4.53;;
40254;SDS011;25973;52.368;4.940;2022-11-20T03:43:57;10.85;;;4.88;;
40254;SDS011;25973;52.368;4.940;2022-11-20T03:46:24;10.77;;;4.75;;
40254;SDS011;25973;52.368;4.940;2022-11-20T03:48:50;11.02;;;4.65;;
40254;SDS011;25973;52.368;4.940;2022-11-20T03:51:17;9.75;;;4.63;;
40254;SDS011;25973;52.368;4.940;2022-11-20T03:53:44;12.82;;;5.55;;
40254;SDS011;25973;52.368;4.940;2022-11-20T03:56:13;13.82;;;4.68;;
40254;SDS011;25973;52.368;4.940;2022-11-20T03:58:41;12.05;;;4.70;;
40254;SDS011;25973;52.368;4.940;2022-11-20T04:01:11;12.88;;;4.30;;
40254;SDS011;25973;52.368;4.940;2022-11-20T04:03:47;11.82;;;5.25;;
40254;SDS011;25973;52.368;4.940;2022-11-20T04:06:15;15.75;;;5.30;;
40254;SDS011;25973;52.368;4.940;2022-11-20T04:08:45;11.40;;;5.22;;
40254;SDS011;25973;52.368;4.940;2022-11-20T04:11:12;11.07;;;4.95;;
40254;SDS011;25973;52.368;4.940;2022-11-20T04:13:45;8.27;;;4.35;;
40254;SDS011;25973;52.368;4.940;2022-11-20T04:16:12;10.27;;;4.70;;
40254;SDS011;25973;52.368;4.940;2022-11-20T04:18:38;10.02;;;4.47;;
40254;SDS011;25973;52.368;4.940;2022-11-20T04:21:05;9.73;;;5.10;;
40254;SDS011;25973;52.368;4.940;2022-11-20T04:23:31;11.18;;;4.50;;
40254;SDS011;25973;52.368;4.940;2022-11-20T04:26:00;11.63;;;4.97;;
40254;SDS011;25973;52.368;4.940;2022-11-20T04:28:30;18.65;;;6.30;;
40254;SDS011;25973;52.368;4.940;2022-11-20T04:33:29;11.77;;;5.13;;
40254;SDS011;25973;52.368;4.940;2022-11-20T04:35:55;12.48;;;5.90;;
40254;SDS011;25973;52.368;4.940;2022-11-20T04:38:29;10.35;;;4.95;;
40254;SDS011;25973;52.368;4.940;2022-11-20T04:40:58;10.90;;;4.53;;
40254;SDS011;25973;52.368;4.940;2022-11-20T04:43:25;11.95;;;5.25;;
40254;SDS011;25973;52.368;4.940;2022-11-20T04:45:51;12.50;;;5.70;;
40254;SDS011;25973;52.368;4.940;2022-11-20T04:48:17;10.65;;;4.90;;
40254;SDS011;25973;52.368;4.940;2022-11-20T04:50:44;13.95;;;5.55;;
40254;SDS011;25973;52.368;4.940;2022-11-20T04:53:10;12.27;;;5.32;;
40254;SDS011;25973;52.368;4.940;2022-11-20T04:55:37;9.35;;;4.93;;
40254;SDS011;25973;52.368;4.940;2022-11-20T04:58:05;13.60;;;5.93;;
40254;SDS011;25973;52.368;4.940;2022-11-20T05:00:31;11.95;;;5.25;;
40254;SDS011;25973;52.368;4.940;2022-11-20T05:02:56;23.92;;;6.43;;
40254;SDS011;25973;52.368;4.940;2022-11-20T05:05:22;13.13;;;5.28;;
40254;SDS011;25973;52.368;4.940;2022-11-20T05:07:47;10.85;;;5.55;;
40254;SDS011;25973;52.368;4.940;2022-11-20T05:10:13;12.88;;;5.20;;
40254;SDS011;25973;52.368;4.940;2022-11-20T05:12:39;13.35;;;5.55;;
40254;SDS011;25973;52.368;4.940;2022-11-20T05:15:05;11.55;;;5.65;;
40254;SDS011;25973;52.368;4.940;2022-11-20T05:17:30;11.48;;;4.93;;
40254;SDS011;25973;52.368;4.940;2022-11-20T05:19:58;13.20;;;5.47;;
40254;SDS011;25973;52.368;4.940;2022-11-20T05:22:24;10.15;;;4.93;;
40254;SDS011;25973;52.368;4.940;2022-11-20T05:24:50;10.50;;;5.40;;
40254;SDS011;25973;52.368;4.940;2022-11-20T05:27:15;12.23;;;5.65;;
40254;SDS011;25973;52.368;4.940;2022-11-20T05:29:41;12.75;;;5.57;;
40254;SDS011;25973;52.368;4.940;2022-11-20T05:32:06;11.75;;;5.90;;
40254;SDS011;25973;52.368;4.940;2022-11-20T05:34:34;13.73;;;5.78;;
40254;SDS011;25973;52.368;4.940;2022-11-20T05:37:00;10.73;;;5.03;;
40254;SDS011;25973;52.368;4.940;2022-11-20T05:39:26;16.17;;;6.65;;
40254;SDS011;25973;52.368;4.940;2022-11-20T05:41:52;16.00;;;6.43;;
40254;SDS011;25973;52.368;4.940;2022-11-20T05:44:37;11.75;;;4.95;;
40254;SDS011;25973;52.368;4.940;2022-11-20T05:47:03;9.05;;;4.65;;
40254;SDS011;25973;52.368;4.940;2022-11-20T05:49:29;12.25;;;6.28;;
40254;SDS011;25973;52.368;4.940;2022-11-20T05:51:54;12.73;;;6.15;;
40254;SDS011;25973;52.368;4.940;2022-11-20T05:54:20;11.63;;;5.15;;
40254;SDS011;25973;52.368;4.940;2022-11-20T05:56:45;11.27;;;5.07;;
40254;SDS011;25973;52.368;4.940;2022-11-20T05:59:11;13.02;;;5.95;;
40254;SDS011;25973;52.368;4.940;2022-11-20T06:01:37;15.40;;;6.50;;
40254;SDS011;25973;52.368;4.940;2022-11-20T06:04:05;10.88;;;5.53;;
40254;SDS011;25973;52.368;4.940;2022-11-20T06:06:30;12.85;;;5.72;;
40254;SDS011;25973;52.368;4.940;2022-11-20T06:08:56;13.68;;;6.32;;
40254;SDS011;25973;52.368;4.940;2022-11-20T06:11:23;12.95;;;6.38;;
40254;SDS011;25973;52.368;4.940;2022-11-20T06:13:50;13.40;;;5.40;;
40254;SDS011;25973;52.368;4.940;2022-11-20T06:16:16;12.77;;;5.70;;
40254;SDS011;25973;52.368;4.940;2022-11-20T06:18:43;14.68;;;5.97;;
40254;SDS011;25973;52.368;4.940;2022-11-20T06:21:11;13.63;;;5.57;;
40254;SDS011;25973;52.368;4.940;2022-11-20T06:23:38;14.65;;;6.35;;
40254;SDS011;25973;52.368;4.940;2022-11-20T06:26:05;11.80;;;5.43;;
40254;SDS011;25973;52.368;4.940;2022-11-20T06:28:33;16.77;;;6.13;;
40254;SDS011;25973;52.368;4.940;2022-11-20T06:30:59;15.95;;;7.03;;
40254;SDS011;25973;52.368;4.940;2022-11-20T06:33:25;12.30;;;5.75;;
40254;SDS011;25973;52.368;4.940;2022-11-20T06:35:50;12.60;;;6.30;;
40254;SDS011;25973;52.368;4.940;2022-11-20T06:38:16;10.98;;;6.03;;
40254;SDS011;25973;52.368;4.940;2022-11-20T06:40:42;15.15;;;6.50;;
40254;SDS011;25973;52.368;4.940;2022-11-20T06:43:08;11.52;;;6.43;;
40254;SDS011;25973;52.368;4.940;2022-11-20T06:45:34;13.40;;;5.97;;
40254;SDS011;25973;52.368;4.940;2022-11-20T06:48:00;15.18;;;6.25;;
40254;SDS011;25973;52.368;4.940;2022-11-20T06:50:26;11.93;;;5.03;;
40254;SDS011;25973;52.368;4.940;2022-11-20T06:52:51;12.40;;;6.20;;
40254;SDS011;25973;52.368;4.940;2022-11-20T06:55:20;14.23;;;6.53;;
40254;SDS011;25973;52.368;4.940;2022-11-20T06:57:45;17.35;;;5.80;;
40254;SDS011;25973;52.368;4.940;2022-11-20T07:00:11;16.13;;;6.85;;
40254;SDS011;25973;52.368;4.940;2022-11-20T07:02:37;14.55;;;5.80;;
40254;SDS011;25973;52.368;4.940;2022-11-20T07:05:02;13.25;;;5.07;;
40254;SDS011;25973;52.368;4.940;2022-11-20T07:07:28;14.73;;;6.80;;
40254;SDS011;25973;52.368;4.940;2022-11-20T07:09:54;12.50;;;5.63;;
40254;SDS011;25973;52.368;4.940;2022-11-20T07:12:19;17.10;;;6.55;;
40254;SDS011;25973;52.368;4.940;2022-11-20T07:14:45;11.23;;;6.05;;
40254;SDS011;25973;52.368;4.940;2022-11-20T07:17:11;14.50;;;5.90;;
40254;SDS011;25973;52.368;4.940;2022-11-20T07:19:38;12.95;;;5.97;;
40254;SDS011;25973;52.368;4.940;2022-11-20T07:22:03;13.00;;;6.72;;
40254;SDS011;25973;52.368;4.940;2022-11-20T07:24:29;15.05;;;6.82;;
40254;SDS011;25973;52.368;4.940;2022-11-20T07:26:54;14.85;;;6.75;;
40254;SDS011;25973;52.368;4.940;2022-11-20T07:29:20;10.88;;;6.10;;
40254;SDS011;25973;52.368;4.940;2022-11-20T07:31:45;14.98;;;6.70;;
40254;SDS011;25973;52.368;4.940;2022-11-20T07:34:11;13.32;;;6.50;;
40254;SDS011;25973;52.368;4.940;2022-11-20T07:36:36;13.38;;;6.10;;
40254;SDS011;25973;52.368;4.940;2022-11-20T07:39:02;15.43;;;6.53;;
40254;SDS011;25973;52.368;4.940;2022-11-20T07:41:29;13.43;;;6.25;;
40254;SDS011;25973;52.368;4.940;2022-11-20T07:43:55;11.38;;;5.55;;
40254;SDS011;25973;52.368;4.940;2022-11-20T07:46:20;17.95;;;6.00;;
40254;SDS011;25973;52.368;4.940;2022-11-20T07:48:46;14.95;;;7.32;;
40254;SDS011;25973;52.368;4.940;2022-11-20T07:51:11;14.10;;;6.38;;
40254;SDS011;25973;52.368;4.940;2022-11-20T07:53:38;12.48;;;6.32;;
40254;SDS011;25973;52.368;4.940;2022-11-20T07:56:03;13.85;;;6.63;;
40254;SDS011;25973;52.368;4.940;2022-11-20T07:58:29;15.20;;;6.68;;
40254;SDS011;25973;52.368;4.940;2022-11-20T08:00:57;14.25;;;6.60;;
40254;SDS011;25973;52.368;4.940;2022-11-20T08:03:27;19.10;;;7.22;;
40254;SDS011;25973;52.368;4.940;2022-11-20T08:05:52;16.65;;;6.40;;
40254;SDS011;25973;52.368;4.940;2022-11-20T08:08:18;13.95;;;6.00;;
40254;SDS011;25973;52.368;4.940;2022-11-20T08:10:44;14.40;;;7.05;;
40254;SDS011;25973;52.368;4.940;2022-11-20T08:13:12;12.57;;;6.07;;
40254;SDS011;25973;52.368;4.940;2022-11-20T08:15:56;11.77;;;5.85;;
40254;SDS011;25973;52.368;4.940;2022-11-20T08:18:22;16.25;;;7.40;;
40254;SDS011;25973;52.368;4.940;2022-11-20T08:20:49;18.73;;;6.72;;
40254;SDS011;25973;52.368;4.940;2022-11-20T08:23:14;12.82;;;6.38;;
40254;SDS011;25973;52.368;4.940;2022-11-20T08:25:40;13.52;;;6.65;;
40254;SDS011;25973;52.368;4.940;2022-11-20T08:28:06;15.25;;;6.57;;
40254;SDS011;25973;52.368;4.940;2022-11-20T08:30:34;13.20;;;6.40;;
40254;SDS011;25973;52.368;4.940;2022-11-20T08:33:01;16.27;;;7.97;;
40254;SDS011;25973;52.368;4.940;2022-11-20T08:35:34;13.27;;;6.88;;
40254;SDS011;25973;52.368;4.940;2022-11-20T08:38:04;13.23;;;5.93;;
40254;SDS011;25973;52.368;4.940;2022-11-20T08:40:30;14.98;;;6.65;;
40254;SDS011;25973;52.368;4.940;2022-11-20T08:42:57;16.23;;;6.43;;
40254;SDS011;25973;52.368;4.940;2022-11-20T08:45:22;18.80;;;8.13;;
40254;SDS011;25973;52.368;4.940;2022-11-20T08:47:48;16.17;;;7.00;;
40254;SDS011;25973;52.368;4.940;2022-11-20T08:50:14;14.32;;;7.05;;
40254;SDS011;25973;52.368;4.940;2022-11-20T08:52:41;14.57;;;7.22;;
40254;SDS011;25973;52.368;4.940;2022-11-20T08:55:07;13.13;;;6.80;;
40254;SDS011;25973;52.368;4.940;2022-11-20T08:57:35;19.55;;;8.27;;
40254;SDS011;25973;52.368;4.940;2022-11-20T09:00:01;15.60;;;7.45;;
40254;SDS011;25973;52.368;4.940;2022-11-20T09:02:28;16.25;;;7.75;;
40254;SDS011;25973;52.368;4.940;2022-11-20T09:04:53;18.92;;;8.23;;
40254;SDS011;25973;52.368;4.940;2022-11-20T09:07:19;24.73;;;8.23;;
40254;SDS011;25973;52.368;4.940;2022-11-20T09:09:45;16.98;;;7.78;;
40254;SDS011;25973;52.368;4.940;2022-11-20T09:12:11;21.05;;;8.05;;
40254;SDS011;25973;52.368;4.940;2022-11-20T09:14:36;15.35;;;6.35;;
40254;SDS011;25973;52.368;4.940;2022-11-20T09:17:02;17.67;;;7.32;;
40254;SDS011;25973;52.368;4.940;2022-11-20T09:19:27;13.88;;;7.50;;
40254;SDS011;25973;52.368;4.940;2022-11-20T09:21:53;16.98;;;7.78;;
40254;SDS011;25973;52.368;4.940;2022-11-20T09:24:19;17.98;;;8.00;;
40254;SDS011;25973;52.368;4.940;2022-11-20T09:26:45;13.57;;;6.57;;
40254;SDS011;25973;52.368;4.940;2022-11-20T09:29:11;14.80;;;6.63;;
40254;SDS011;25973;52.368;4.940;2022-11-20T09:31:37;13.90;;;6.45;;
40254;SDS011;25973;52.368;4.940;2022-11-20T09:34:02;16.65;;;7.05;;
40254;SDS011;25973;52.368;4.940;2022-11-20T09:36:28;17.67;;;7.72;;
40254;SDS011;25973;52.368;4.940;2022-11-20T09:38:53;16.75;;;6.72;;
40254;SDS011;25973;52.368;4.940;2022-11-20T09:41:38;16.60;;;8.05;;
40254;SDS011;25973;52.368;4.940;2022-11-20T09:46:53;15.20;;;7.03;;
40254;SDS011;25973;52.368;4.940;2022-11-20T09:49:29;18.63;;;7.25;;
40254;SDS011;25973;52.368;4.940;2022-11-20T09:52:22;20.03;;;8.13;;
40254;SDS011;25973;52.368;4.940;2022-11-20T09:55:13;16.27;;;7.35;;
40254;SDS011;25973;52.368;4.940;2022-11-20T09:57:40;17.45;;;7.55;;
40254;SDS011;25973;52.368;4.940;2022-11-20T10:00:10;13.77;;;6.57;;
40254;SDS011;25973;52.368;4.940;2022-11-20T10:02:39;22.58;;;8.45;;
40254;SDS011;25973;52.368;4.940;2022-11-20T10:05:25;19.33;;;7.75;;
40254;SDS011;25973;52.368;4.940;2022-11-20T10:08:15;15.90;;;7.45;;
40254;SDS011;25973;52.368;4.940;2022-11-20T10:10:46;14.38;;;7.82;;
40254;SDS011;25973;52.368;4.940;2022-11-20T10:13:34;15.45;;;7.70;;
40254;SDS011;25973;52.368;4.940;2022-11-20T10:16:41;15.00;;;7.75;;
40254;SDS011;25973;52.368;4.940;2022-11-20T10:22:17;13.60;;;7.32;;
40254;SDS011;25973;52.368;4.940;2022-11-20T10:25:10;12.95;;;6.90;;
40254;SDS011;25973;52.368;4.940;2022-11-20T10:30:19;16.73;;;7.88;;
40254;SDS011;25973;52.368;4.940;2022-11-20T10:32:52;16.17;;;8.45;;
40254;SDS011;25973;52.368;4.940;2022-11-20T10:38:02;22.30;;;8.93;;
40254;SDS011;25973;52.368;4.940;2022-11-20T10:40:40;16.70;;;7.80;;
40254;SDS011;25973;52.368;4.940;2022-11-20T10:43:10;16.73;;;6.97;;
40254;SDS011;25973;52.368;4.940;2022-11-20T10:45:58;14.48;;;6.78;;
40254;SDS011;25973;52.368;4.940;2022-11-20T10:48:28;17.98;;;7.53;;
40254;SDS011;25973;52.368;4.940;2022-11-20T10:56:56;12.70;;;6.80;;
40254;SDS011;25973;52.368;4.940;2022-11-20T10:59:32;15.00;;;6.88;;
40254;SDS011;25973;52.368;4.940;2022-11-20T11:02:14;17.40;;;8.23;;
40254;SDS011;25973;52.368;4.940;2022-11-20T11:04:49;19.63;;;8.23;;
40254;SDS011;25973;52.368;4.940;2022-11-20T11:09:50;19.77;;;7.53;;
40254;SDS011;25973;52.368;4.940;2022-11-20T11:12:20;19.70;;;7.60;;
40254;SDS011;25973;52.368;4.940;2022-11-20T11:14:49;20.27;;;9.13;;
40254;SDS011;25973;52.368;4.940;2022-11-20T11:17:21;21.15;;;8.65;;
40254;SDS011;25973;52.368;4.940;2022-11-20T11:20:01;17.40;;;8.43;;
40254;SDS011;25973;52.368;4.940;2022-11-20T11:25:20;17.85;;;7.38;;
40254;SDS011;25973;52.368;4.940;2022-11-20T11:27:51;24.27;;;9.45;;
40254;SDS011;25973;52.368;4.940;2022-11-20T11:30:19;24.23;;;9.27;;
40254;SDS011;25973;52.368;4.940;2022-11-20T11:32:45;26.25;;;9.77;;
40254;SDS011;25973;52.368;4.940;2022-11-20T11:35:24;26.08;;;11.07;;
40254;SDS011;25973;52.368;4.940;2022-11-20T11:37:52;20.23;;;9.43;;
40254;SDS011;25973;52.368;4.940;2022-11-20T11:40:20;23.80;;;9.70;;
40254;SDS011;25973;52.368;4.940;2022-11-20T11:42:50;23.73;;;10.63;;
40254;SDS011;25973;52.368;4.940;2022-11-20T11:45:22;24.83;;;10.15;;
40254;SDS011;25973;52.368;4.940;2022-11-20T11:47:49;27.10;;;11.20;;
40254;SDS011;25973;52.368;4.940;2022-11-20T11:50:18;25.65;;;11.55;;
40254;SDS011;25973;52.368;4.940;2022-11-20T11:55:35;24.55;;;11.45;;
40254;SDS011;25973;52.368;4.940;2022-11-20T12:00:58;34.45;;;11.57;;
40254;SDS011;25973;52.368;4.940;2022-11-20T12:03:35;26.00;;;11.88;;
40254;SDS011;25973;52.368;4.940;2022-11-20T12:06:10;28.83;;;11.50;;
40254;SDS011;25973;52.368;4.940;2022-11-20T12:11:43;33.95;;;11.95;;
40254;SDS011;25973;52.368;4.940;2022-11-20T12:14:37;27.52;;;11.43;;
40254;SDS011;25973;52.368;4.940;2022-11-20T12:17:04;28.63;;;11.90;;
40254;SDS011;25973;52.368;4.940;2022-11-20T12:19:30;28.27;;;13.90;;
40254;SDS011;25973;52.368;4.940;2022-11-20T12:44:29;27.65;;;12.00;;
40254;SDS011;25973;52.368;4.940;2022-11-20T12:47:39;33.42;;;12.10;;
40254;SDS011;25973;52.368;4.940;2022-11-20T12:53:05;36.42;;;14.05;;
40254;SDS011;25973;52.368;4.940;2022-11-20T12:56:11;36.38;;;13.65;;
40254;SDS011;25973;52.368;4.940;2022-11-20T13:01:51;35.35;;;13.82;;
40254;SDS011;25973;52.368;4.940;2022-11-20T13:04:34;35.55;;;14.13;;
40254;SDS011;25973;52.368;4.940;2022-11-20T13:07:13;36.03;;;13.07;;
40254;SDS011;25973;52.368;4.940;2022-11-20T13:09:43;35.70;;;15.02;;
40254;SDS011;25973;52.368;4.940;2022-11-20T13:12:58;34.17;;;13.68;;
40254;SDS011;25973;52.368;4.940;2022-11-20T13:20:29;35.60;;;13.90;;
40254;SDS011;25973;52.368;4.940;2022-11-20T13:22:56;33.35;;;13.85;;
40254;SDS011;25973;52.368;4.940;2022-11-20T13:28:59;34.80;;;13.55;;
40254;SDS011;25973;52.368;4.940;2022-11-20T13:30:57;32.20;;;14.00;;
40254;SDS011;25973;52.368;4.940;2022-11-20T13:33:28;32.88;;;12.90;;
40254;SDS011;25973;52.368;4.940;2022-11-20T13:38:46;33.85;;;13.70;;
40254;SDS011;25973;52.368;4.940;2022-11-20T13:41:23;35.72;;;13.60;;
40254;SDS011;25973;52.368;4.940;2022-11-20T13:43:56;36.78;;;15.52;;
40254;SDS011;25973;52.368;4.940;2022-11-20T13:46:37;33.47;;;13.25;;
40254;SDS011;25973;52.368;4.940;2022-11-20T13:49:09;32.00;;;13.77;;
40254;SDS011;25973;52.368;4.940;2022-11-20T13:51:44;32.90;;;13.95;;
40254;SDS011;25973;52.368;4.940;2022-11-20T13:54:27;41.78;;;15.95;;
40254;SDS011;25973;52.368;4.940;2022-11-20T14:00:19;33.78;;;13.55;;
40254;SDS011;25973;52.368;4.940;2022-11-20T14:05:36;28.92;;;12.82;;
40254;SDS011;25973;52.368;4.940;2022-11-20T14:08:06;36.20;;;15.07;;
40254;SDS011;25973;52.368;4.940;2022-11-20T14:10:38;38.83;;;14.52;;
40254;SDS011;25973;52.368;4.940;2022-11-20T14:13:10;37.08;;;14.93;;
40254;SDS011;25973;52.368;4.940;2022-11-20T14:15:45;36.03;;;14.23;;
40254;SDS011;25973;52.368;4.940;2022-11-20T14:18:13;38.45;;;13.93;;
40254;SDS011;25973;52.368;4.940;2022-11-20T14:20:53;29.90;;;13.52;;
40254;SDS011;25973;52.368;4.940;2022-11-20T14:23:26;25.40;;;12.73;;
40254;SDS011;25973;52.368;4.940;2022-11-20T14:25:52;33.47;;;13.25;;
40254;SDS011;25973;52.368;4.940;2022-11-20T14:28:24;40.78;;;14.32;;
40254;SDS011;25973;52.368;4.940;2022-11-20T14:30:50;34.63;;;13.65;;
40254;SDS011;25973;52.368;4.940;2022-11-20T14:33:16;29.98;;;11.57;;
40254;SDS011;25973;52.368;4.940;2022-11-20T14:35:45;27.25;;;12.88;;
40254;SDS011;25973;52.368;4.940;2022-11-20T14:38:16;30.80;;;13.88;;
40254;SDS011;25973;52.368;4.940;2022-11-20T14:40:43;33.95;;;16.25;;
40254;SDS011;25973;52.368;4.940;2022-11-20T14:43:20;32.05;;;14.50;;
40254;SDS011;25973;52.368;4.940;2022-11-20T14:45:48;32.53;;;13.05;;
40254;SDS011;25973;52.368;4.940;2022-11-20T14:51:11;25.45;;;11.80;;
40254;SDS011;25973;52.368;4.940;2022-11-20T14:53:50;29.10;;;13.38;;
40254;SDS011;25973;52.368;4.940;2022-11-20T14:56:21;32.95;;;13.07;;
40254;SDS011;25973;52.368;4.940;2022-11-20T14:58:56;37.75;;;14.27;;
40254;SDS011;25973;52.368;4.940;2022-11-20T15:01:26;30.08;;;12.27;;
40254;SDS011;25973;52.368;4.940;2022-11-20T15:03:59;34.88;;;14.70;;
40254;SDS011;25973;52.368;4.940;2022-11-20T15:06:36;34.95;;;13.63;;
40254;SDS011;25973;52.368;4.940;2022-11-20T15:09:03;33.45;;;13.88;;
40254;SDS011;25973;52.368;4.940;2022-11-20T15:11:31;29.95;;;12.80;;
40254;SDS011;25973;52.368;4.940;2022-11-20T15:14:02;39.05;;;14.75;;
40254;SDS011;25973;52.368;4.940;2022-11-20T15:16:29;38.72;;;15.07;;
40254;SDS011;25973;52.368;4.940;2022-11-20T15:18:55;36.88;;;14.13;;
40254;SDS011;25973;52.368;4.940;2022-11-20T15:21:21;32.60;;;14.35;;
40254;SDS011;25973;52.368;4.940;2022-11-20T15:23:47;34.83;;;14.77;;
40254;SDS011;25973;52.368;4.940;2022-11-20T15:26:15;35.90;;;14.32;;
40254;SDS011;25973;52.368;4.940;2022-11-20T15:28:48;31.27;;;13.77;;
40254;SDS011;25973;52.368;4.940;2022-11-20T15:31:16;40.10;;;14.73;;
40254;SDS011;25973;52.368;4.940;2022-11-20T15:33:44;34.38;;;14.73;;
40254;SDS011;25973;52.368;4.940;2022-11-20T15:36:10;31.48;;;14.30;;
40254;SDS011;25973;52.368;4.940;2022-11-20T15:38:36;35.90;;;13.90;;
40254;SDS011;25973;52.368;4.940;2022-11-20T15:41:02;30.98;;;13.90;;
40254;SDS011;25973;52.368;4.940;2022-11-20T15:43:27;33.00;;;13.88;;
40254;SDS011;25973;52.368;4.940;2022-11-20T15:46:00;37.10;;;13.88;;
40254;SDS011;25973;52.368;4.940;2022-11-20T15:48:29;39.58;;;15.52;;
40254;SDS011;25973;52.368;4.940;2022-11-20T15:51:12;33.08;;;13.70;;
40254;SDS011;25973;52.368;4.940;2022-11-20T15:53:49;36.72;;;14.98;;
40254;SDS011;25973;52.368;4.940;2022-11-20T15:56:15;31.92;;;13.30;;
40254;SDS011;25973;52.368;4.940;2022-11-20T15:58:40;38.00;;;16.35;;
40254;SDS011;25973;52.368;4.940;2022-11-20T16:01:10;33.83;;;14.43;;
40254;SDS011;25973;52.368;4.940;2022-11-20T16:03:37;34.85;;;14.55;;
40254;SDS011;25973;52.368;4.940;2022-11-20T16:06:04;35.90;;;16.42;;
40254;SDS011;25973;52.368;4.940;2022-11-20T16:08:29;35.65;;;14.10;;
40254;SDS011;25973;52.368;4.940;2022-11-20T16:10:55;32.38;;;14.10;;
40254;SDS011;25973;52.368;4.940;2022-11-20T16:13:24;34.53;;;14.02;;